Time;durP1;ratioP1;P1;durP2;ratioP2;P2;SDS_P1;SDS_P2;PMS_P1;PMS_P2;Temp;Humidity;BMP_temperature;BMP_pressure;BME280_temperature;BME280_humidity;BME280_pressure;Samples;Min_cycle;Max_cycle;Signal;HPM_P1;HPM_P2
2023/07/21 00:00:36;;;;;;;2.87;2.17;;;29.10;52.90;;;;;;5043336;28;20451;-72
2023/07/21 00:03:05;;;;;;;3.40;2.17;;;29.10;52.90;;;;;;5038653;28;20513;-70
2023/07/21 00:05:33;;;;;;;3.37;2.60;;;29.10;53.00;;;;;;5047670;28;20475;-71
2023/07/21 00:08:03;;;;;;;2.30;2.00;;;29.10;53.10;;;;;;5045157;28;20467;-70
2023/07/21 00:10:31;;;;;;;2.17;1.97;;;29.10;53.00;;;;;;5043896;28;20539;-70
2023/07/21 00:13:00;;;;;;;2.47;2.10;;;29.10;53.10;;;;;;5047196;28;20470;-71
2023/07/21 00:15:28;;;;;;;2.00;1.83;;;29.10;53.10;;;;;;5042533;28;20458;-70
2023/07/21 00:17:56;;;;;;;2.63;2.43;;;29.10;53.10;;;;;;5045673;28;20467;-70
2023/07/21 00:20:25;;;;;;;2.80;1.97;;;29.10;52.90;;;;;;5047754;28;20499;-70
2023/07/21 00:22:53;;;;;;;2.63;2.17;;;29.10;53.00;;;;;;5032524;28;20817;-70
2023/07/21 00:25:23;;;;;;;2.30;2.10;;;29.00;53.00;;;;;;5039749;28;20992;-74
2023/07/21 00:27:52;;;;;;;2.47;2.20;;;29.00;53.00;;;;;;5046011;28;20526;-72
2023/07/21 00:30:22;;;;;;;2.17;1.97;;;29.00;53.20;;;;;;5046847;28;20490;-72
2023/07/21 00:32:50;;;;;;;2.00;1.90;;;29.00;53.00;;;;;;5042933;28;20480;-71
2023/07/21 00:35:19;;;;;;;2.00;1.80;;;29.00;53.10;;;;;;5034922;28;20480;-70
2023/07/21 00:37:47;;;;;;;2.27;2.17;;;29.00;53.20;;;;;;5046752;28;21328;-71
2023/07/21 00:40:18;;;;;;;2.00;1.90;;;29.00;53.10;;;;;;5032144;28;20520;-71
2023/07/21 00:42:49;;;;;;;2.00;1.90;;;29.00;53.10;;;;;;5049854;28;20469;-70
2023/07/21 00:45:17;;;;;;;2.13;2.03;;;29.00;53.20;;;;;;5029674;28;20487;-75
2023/07/21 00:47:46;;;;;;;2.40;2.20;;;28.90;53.00;;;;;;5048535;28;20465;-76
2023/07/21 00:50:16;;;;;;;2.50;2.30;;;28.90;53.20;;;;;;5031273;28;20549;-71
2023/07/21 00:52:45;;;;;;;2.50;1.90;;;28.90;53.10;;;;;;5042685;28;20582;-70
2023/07/21 00:55:14;;;;;;;2.67;2.40;;;28.90;52.90;;;;;;5033738;28;20460;-70
2023/07/21 00:57:43;;;;;;;2.70;2.13;;;28.90;52.80;;;;;;5051770;28;20462;-70
2023/07/21 01:00:13;;;;;;;4.27;2.13;;;28.90;52.80;;;;;;5029460;28;20468;-70
2023/07/21 01:02:42;;;;;;;4.10;2.43;;;28.90;52.80;;;;;;5047960;28;20464;-70
2023/07/21 01:05:12;;;;;;;2.23;2.13;;;28.90;52.80;;;;;;5045088;28;20838;-72
2023/07/21 01:07:42;;;;;;;3.27;2.00;;;28.90;52.80;;;;;;5047522;28;20547;-70
2023/07/21 01:10:13;;;;;;;2.40;2.20;;;28.90;52.80;;;;;;5044756;28;20473;-73
2023/07/21 01:12:41;;;;;;;2.77;2.57;;;28.90;52.70;;;;;;5035768;28;20455;-70
2023/07/21 01:15:11;;;;;;;2.70;1.80;;;28.90;52.80;;;;;;5030626;28;20470;-72
2023/07/21 01:17:41;;;;;;;3.03;1.80;;;28.90;52.80;;;;;;5045967;28;20465;-70
2023/07/21 01:20:15;;;;;;;2.30;2.07;;;28.90;52.90;;;;;;5047979;28;20548;-72
2023/07/21 01:22:50;;;;;;;2.37;1.90;;;28.80;52.80;;;;;;5044847;28;20469;-70
2023/07/21 01:25:22;;;;;;;2.57;2.03;;;28.80;52.80;;;;;;5047312;28;20960;-71
2023/07/21 01:27:52;;;;;;;2.17;2.07;;;28.80;52.90;;;;;;5048562;28;21056;-72
2023/07/21 01:30:26;;;;;;;2.03;1.93;;;28.80;53.00;;;;;;5049354;28;20516;-72
2023/07/21 01:32:56;;;;;;;2.87;2.67;;;28.80;53.20;;;;;;5043607;28;20465;-74
2023/07/21 01:35:28;;;;;;;2.00;1.90;;;28.80;53.10;;;;;;5032846;28;20460;-70
2023/07/21 01:37:58;;;;;;;2.20;2.10;;;28.80;53.10;;;;;;5043872;28;20497;-70
2023/07/21 01:40:29;;;;;;;2.30;2.00;;;28.70;53.10;;;;;;5048572;28;20469;-70
2023/07/21 01:42:58;;;;;;;2.63;2.30;;;28.70;53.10;;;;;;5023636;28;20476;-70
2023/07/21 01:45:26;;;;;;;2.53;2.33;;;28.70;53.20;;;;;;5047291;28;20531;-69
2023/07/21 01:47:55;;;;;;;2.20;2.00;;;28.70;53.20;;;;;;5049244;28;20530;-70
2023/07/21 01:50:25;;;;;;;4.67;2.23;;;28.70;53.30;;;;;;5044560;28;20511;-70
2023/07/21 01:52:54;;;;;;;2.33;2.20;;;28.70;53.50;;;;;;5049541;28;20457;-70
2023/07/21 01:55:26;;;;;;;2.03;1.83;;;28.60;53.50;;;;;;5044543;28;20467;-71
2023/07/21 01:57:59;;;;;;;2.30;2.10;;;28.60;53.50;;;;;;5027905;28;20463;-70
2023/07/21 02:00:34;;;;;;;2.40;2.07;;;28.60;53.60;;;;;;5033225;28;20473;-70
2023/07/21 02:03:18;;;;;;;2.20;2.00;;;28.60;53.70;;;;;;5039725;28;20473;-75
2023/07/21 02:05:48;;;;;;;2.73;2.53;;;28.60;53.50;;;;;;5033076;28;21081;-73
2023/07/21 02:08:17;;;;;;;1.93;1.83;;;28.60;53.60;;;;;;5048324;28;20507;-70
2023/07/21 02:10:46;;;;;;;2.20;1.93;;;28.60;53.70;;;;;;5044785;28;20495;-70
2023/07/21 02:13:25;;;;;;;2.17;2.07;;;28.60;53.60;;;;;;5030979;28;20468;-70
2023/07/21 02:15:53;;;;;;;2.17;2.00;;;28.60;53.60;;;;;;5030211;28;20861;-73
2023/07/21 02:18:21;;;;;;;2.50;2.20;;;28.50;53.80;;;;;;5041335;28;20523;-70
2023/07/21 02:20:50;;;;;;;2.07;1.87;;;28.50;53.80;;;;;;5030617;28;20987;-70
2023/07/21 02:23:18;;;;;;;2.43;2.23;;;28.50;53.80;;;;;;5042275;28;21029;-70
2023/07/21 02:25:46;;;;;;;1.93;1.83;;;28.50;53.70;;;;;;5050239;28;20464;-70
2023/07/21 02:28:14;;;;;;;2.33;2.10;;;28.50;53.70;;;;;;5027386;28;20473;-70
2023/07/21 02:30:44;;;;;;;2.80;2.60;;;28.50;53.80;;;;;;5046552;28;21023;-70
2023/07/21 02:33:12;;;;;;;3.90;2.33;;;28.50;53.80;;;;;;5043647;28;20460;-76
2023/07/21 02:35:40;;;;;;;3.10;2.37;;;28.50;53.70;;;;;;5042444;28;20570;-71
2023/07/21 02:38:08;;;;;;;2.47;2.27;;;28.50;53.80;;;;;;5049578;28;21010;-71
2023/07/21 02:40:37;;;;;;;2.20;2.00;;;28.50;53.80;;;;;;5046612;28;20464;-73
2023/07/21 02:43:05;;;;;;;2.77;2.40;;;28.50;53.80;;;;;;5030787;28;20487;-70
2023/07/21 02:45:33;;;;;;;3.07;2.03;;;28.50;53.80;;;;;;5041538;28;21349;-71
2023/07/21 02:48:03;;;;;;;3.80;1.83;;;28.50;53.70;;;;;;5025121;28;20567;-71
2023/07/21 02:50:32;;;;;;;3.07;2.30;;;28.40;53.80;;;;;;5048862;28;20463;-70
2023/07/21 02:53:02;;;;;;;4.37;2.27;;;28.40;53.70;;;;;;5050359;28;20452;-72
2023/07/21 02:55:31;;;;;;;2.50;2.30;;;28.50;53.50;;;;;;5044404;28;20463;-70
2023/07/21 02:58:01;;;;;;;3.00;2.17;;;28.40;53.80;;;;;;5028220;28;20464;-74
2023/07/21 03:00:34;;;;;;;3.97;1.93;;;28.40;53.70;;;;;;5026987;28;20548;-70
2023/07/21 03:03:15;;;;;;;3.03;2.17;;;28.40;53.90;;;;;;5036231;28;20457;-70
2023/07/21 03:05:47;;;;;;;2.27;2.07;;;28.40;53.70;;;;;;5037085;28;20498;-72
2023/07/21 03:08:15;;;;;;;3.83;2.37;;;28.40;53.90;;;;;;5024595;28;20490;-70
2023/07/21 03:10:43;;;;;;;2.27;2.17;;;28.40;53.70;;;;;;5049570;28;21005;-70
2023/07/21 03:13:13;;;;;;;2.07;1.90;;;28.40;53.90;;;;;;5039912;28;20488;-71
2023/07/21 03:15:43;;;;;;;2.27;2.07;;;28.30;53.90;;;;;;5043684;28;20466;-70
2023/07/21 03:18:15;;;;;;;2.40;2.20;;;28.30;53.80;;;;;;5044255;28;20472;-70
2023/07/21 03:21:02;;;;;;;2.90;1.83;;;28.30;53.80;;;;;;5025296;28;20484;-70
2023/07/21 03:23:30;;;;;;;1.93;1.83;;;28.30;53.80;;;;;;5026811;28;20967;-70
2023/07/21 03:25:59;;;;;;;2.30;2.13;;;28.30;53.80;;;;;;5023464;28;20492;-70
2023/07/21 03:28:31;;;;;;;2.70;2.50;;;28.30;53.70;;;;;;5023322;28;20452;-76
2023/07/21 03:31:00;;;;;;;1.97;1.87;;;28.30;53.90;;;;;;5028973;28;20471;-72
2023/07/21 03:33:36;;;;;;;2.27;2.10;;;28.30;53.90;;;;;;5025157;28;20518;-70
2023/07/21 03:36:20;;;;;;;1.90;1.80;;;28.30;53.90;;;;;;5030157;28;20551;-71
2023/07/21 03:38:48;;;;;;;2.50;2.30;;;28.30;54.00;;;;;;5014289;28;20487;-70
2023/07/21 03:41:17;;;;;;;2.33;2.13;;;28.30;53.80;;;;;;5030629;28;20570;-71
2023/07/21 03:43:46;;;;;;;2.37;2.20;;;28.30;54.00;;;;;;5020755;28;20498;-73
2023/07/21 03:46:14;;;;;;;2.07;1.87;;;28.30;54.00;;;;;;5027643;28;20461;-70
2023/07/21 03:49:03;;;;;;;2.10;1.93;;;28.30;54.00;;;;;;5027839;28;20483;-74
2023/07/21 03:51:34;;;;;;;2.10;2.00;;;28.20;54.00;;;;;;5032247;28;20551;-70
2023/07/21 03:54:04;;;;;;;2.13;2.03;;;28.20;54.00;;;;;;5024432;28;20459;-70
2023/07/21 03:56:32;;;;;;;2.43;2.23;;;28.20;54.00;;;;;;5043033;28;21010;-73
2023/07/21 03:59:02;;;;;;;2.63;1.90;;;28.20;54.00;;;;;;5036634;28;20561;-71
2023/07/21 04:01:30;;;;;;;2.13;2.03;;;28.20;53.90;;;;;;5040795;28;20517;-71
2023/07/21 04:03:59;;;;;;;3.07;2.20;;;28.20;53.90;;;;;;5038702;28;20464;-70
2023/07/21 04:06:28;;;;;;;2.57;2.37;;;28.20;53.90;;;;;;5023058;28;20462;-70
2023/07/21 04:08:56;;;;;;;1.77;1.67;;;28.20;53.90;;;;;;5029730;28;20468;-73
2023/07/21 04:11:25;;;;;;;2.10;2.00;;;28.20;54.00;;;;;;5047075;28;20461;-70
2023/07/21 04:13:54;;;;;;;2.40;2.30;;;28.20;53.90;;;;;;5025225;28;20471;-73
2023/07/21 04:16:22;;;;;;;2.27;2.17;;;28.20;53.90;;;;;;5045198;28;20467;-72
2023/07/21 04:18:51;;;;;;;1.80;1.70;;;28.20;54.10;;;;;;5029345;28;20835;-69
2023/07/21 04:21:19;;;;;;;2.23;2.00;;;28.10;54.00;;;;;;5038965;28;20491;-70
2023/07/21 04:23:48;;;;;;;2.03;1.83;;;28.20;53.90;;;;;;5029060;28;20459;-76
2023/07/21 04:26:17;;;;;;;2.13;2.00;;;28.10;53.70;;;;;;5021676;28;20801;-71
2023/07/21 04:28:45;;;;;;;4.00;2.50;;;28.10;53.70;;;;;;5020917;28;20484;-70
2023/07/21 04:31:15;;;;;;;2.40;2.23;;;28.10;53.90;;;;;;5024513;28;20467;-73
2023/07/21 04:33:55;;;;;;;4.33;2.30;;;28.10;54.00;;;;;;5028550;28;20836;-70
2023/07/21 04:36:24;;;;;;;2.60;2.40;;;28.10;54.10;;;;;;5024939;28;20485;-70
2023/07/21 04:38:56;;;;;;;4.03;1.80;;;28.10;54.10;;;;;;5025820;28;20619;-70
2023/07/21 04:41:25;;;;;;;2.10;1.83;;;28.10;54.10;;;;;;5033572;28;20488;-70
2023/07/21 04:43:54;;;;;;;2.03;1.90;;;28.10;54.20;;;;;;5022762;28;20868;-71
2023/07/21 04:46:26;;;;;;;2.10;2.00;;;28.10;54.10;;;;;;5022864;28;20464;-76
2023/07/21 04:48:57;;;;;;;1.87;1.77;;;28.10;54.10;;;;;;5022440;28;20471;-71
2023/07/21 04:51:34;;;;;;;3.20;2.30;;;28.10;54.10;;;;;;5031979;28;20459;-74
2023/07/21 04:54:04;;;;;;;3.00;2.30;;;28.00;54.10;;;;;;5015930;28;20498;-72
2023/07/21 04:56:32;;;;;;;2.30;2.03;;;28.00;54.20;;;;;;5043638;28;20517;-74
2023/07/21 04:59:02;;;;;;;2.73;2.53;;;28.00;54.10;;;;;;5023284;28;20553;-73
2023/07/21 05:01:31;;;;;;;2.10;1.90;;;28.00;54.10;;;;;;5041264;28;20482;-74
2023/07/21 05:03:59;;;;;;;4.70;2.80;;;28.10;54.10;;;;;;5029801;28;20819;-73
2023/07/21 05:06:28;;;;;;;2.90;2.10;;;28.10;54.00;;;;;;5023944;28;20513;-77
2023/07/21 05:08:56;;;;;;;2.67;2.47;;;28.10;54.00;;;;;;5025288;28;20490;-67
2023/07/21 05:11:25;;;;;;;3.77;2.40;;;28.10;53.90;;;;;;5026008;28;20466;-75
2023/07/21 05:13:54;;;;;;;4.40;2.80;;;28.10;53.90;;;;;;5046014;28;20862;-70
2023/07/21 05:16:37;;;;;;;2.50;2.30;;;28.10;53.90;;;;;;5040502;28;20459;-74
2023/07/21 05:19:37;;;;;;;2.60;2.40;;;28.00;53.90;;;;;;5026825;28;20470;-70
2023/07/21 05:22:20;;;;;;;2.40;2.20;;;28.00;54.00;;;;;;5043093;28;20466;-70
2023/07/21 05:25:18;;;;;;;2.57;2.33;;;28.00;54.00;;;;;;5032496;28;20554;-71
2023/07/21 05:27:49;;;;;;;5.70;2.67;;;28.00;54.10;;;;;;5028540;28;20576;-69
2023/07/21 05:30:18;;;;;;;2.33;2.23;;;28.00;54.10;;;;;;5026041;28;20471;-69
2023/07/21 05:32:51;;;;;;;4.93;2.37;;;28.00;54.10;;;;;;5032864;28;20468;-68
2023/07/21 05:35:26;;;;;;;2.60;2.40;;;28.00;54.10;;;;;;5024692;28;20471;-68
2023/07/21 05:37:59;;;;;;;2.90;2.70;;;28.00;54.20;;;;;;5044062;28;20503;-69
2023/07/21 05:40:28;;;;;;;3.13;2.50;;;28.00;54.10;;;;;;5026501;28;20463;-69
2023/07/21 05:42:57;;;;;;;2.47;2.27;;;28.00;54.10;;;;;;5026840;28;20463;-69
2023/07/21 05:45:26;;;;;;;3.40;2.27;;;28.00;54.10;;;;;;5021158;28;20902;-69
2023/07/21 05:47:56;;;;;;;3.00;2.30;;;28.00;54.10;;;;;;5025505;28;20573;-70
2023/07/21 05:50:29;;;;;;;2.80;2.60;;;28.00;54.20;;;;;;5025946;28;21004;-69
2023/07/21 05:52:57;;;;;;;3.00;2.80;;;28.00;54.20;;;;;;5045220;28;21011;-71
2023/07/21 05:55:29;;;;;;;6.17;2.50;;;28.10;54.30;;;;;;5028585;28;20955;-74
2023/07/21 05:57:59;;;;;;;2.50;2.30;;;28.00;54.30;;;;;;5023794;28;20557;-68
2023/07/21 06:00:28;;;;;;;3.57;2.23;;;28.00;54.30;;;;;;5023271;28;20465;-69
2023/07/21 06:02:59;;;;;;;3.07;2.87;;;28.00;54.40;;;;;;5045087;28;20464;-68
2023/07/21 06:05:28;;;;;;;4.33;3.03;;;28.00;54.50;;;;;;5028496;28;20529;-69
2023/07/21 06:08:17;;;;;;;3.30;2.90;;;28.00;54.50;;;;;;5034491;28;20512;-74
2023/07/21 06:11:16;;;;;;;4.00;3.10;;;28.00;54.90;;;;;;5018504;28;21763;-68
2023/07/21 06:13:49;;;;;;;4.30;3.03;;;28.10;55.50;;;;;;5011232;28;20502;-68
2023/07/21 06:16:26;;;;;;;4.43;3.13;;;28.10;56.10;;;;;;5034369;28;20459;-69
2023/07/21 06:18:55;;;;;;;5.80;2.97;;;28.10;56.30;;;;;;5032935;28;20460;-74
2023/07/21 06:21:23;;;;;;;6.10;3.10;;;28.10;56.30;;;;;;5037637;28;20482;-72
2023/07/21 06:23:53;;;;;;;3.67;3.03;;;28.10;56.20;;;;;;5015476;28;20495;-69
2023/07/21 06:26:22;;;;;;;4.70;3.53;;;28.10;56.10;;;;;;5020899;28;20855;-70
2023/07/21 06:28:52;;;;;;;3.10;2.80;;;28.10;56.00;;;;;;5028447;28;20480;-74
2023/07/21 06:31:23;;;;;;;4.17;3.13;;;28.10;55.90;;;;;;5019393;28;20476;-77
2023/07/21 06:34:09;;;;;;;2.63;2.40;;;28.10;55.80;;;;;;5033890;28;20463;-70
2023/07/21 06:36:50;;;;;;;3.53;3.00;;;28.10;55.70;;;;;;5033135;28;20465;-68
2023/07/21 06:39:24;;;;;;;6.03;2.77;;;28.10;55.70;;;;;;5017088;28;20501;-71
2023/07/21 06:41:56;;;;;;;3.50;2.90;;;28.10;55.60;;;;;;5018537;28;20964;-75
2023/07/21 06:44:42;;;;;;;3.67;2.50;;;28.20;55.60;;;;;;5017167;28;21545;-70
2023/07/21 06:47:24;;;;;;;3.77;2.67;;;28.20;55.50;;;;;;5015132;28;20844;-77
2023/07/21 06:50:15;;;;;;;4.03;3.13;;;28.20;55.40;;;;;;5022052;28;20500;-71
2023/07/21 06:52:50;;;;;;;3.10;2.80;;;28.20;55.40;;;;;;5018226;28;21025;-69
2023/07/21 06:55:21;;;;;;;3.40;2.63;;;28.30;55.50;;;;;;5013897;28;20472;-70
2023/07/21 06:57:50;;;;;;;2.97;2.53;;;28.30;55.40;;;;;;5010748;28;20629;-73
2023/07/21 07:00:23;;;;;;;4.50;2.60;;;28.30;55.40;;;;;;5012573;28;20683;-74
2023/07/21 07:02:52;;;;;;;2.93;2.73;;;28.30;55.40;;;;;;5034430;28;20460;-68
2023/07/21 07:05:21;;;;;;;2.30;2.10;;;28.30;55.40;;;;;;5033362;28;20562;-72
2023/07/21 07:07:52;;;;;;;2.83;2.63;;;28.40;55.40;;;;;;5035864;28;20474;-69
2023/07/21 07:10:22;;;;;;;7.10;3.33;;;28.40;55.40;;;;;;5031060;28;20930;-69
2023/07/21 07:12:51;;;;;;;3.93;2.57;;;28.40;55.40;;;;;;5033248;28;20457;-73
2023/07/21 07:15:21;;;;;;;3.87;2.40;;;28.40;55.40;;;;;;5035097;28;20476;-69
2023/07/21 07:17:49;;;;;;;2.70;2.50;;;28.40;55.30;;;;;;5034120;28;20602;-69
2023/07/21 07:20:18;;;;;;;2.93;2.67;;;28.40;55.40;;;;;;5017762;28;21548;-74
2023/07/21 07:22:46;;;;;;;3.40;2.93;;;28.40;55.40;;;;;;5016002;28;20471;-69
2023/07/21 07:25:14;;;;;;;2.97;2.67;;;28.40;55.40;;;;;;5031507;28;20491;-75
2023/07/21 07:27:43;;;;;;;3.20;2.67;;;28.40;55.30;;;;;;5015180;28;20768;-70
2023/07/21 07:30:12;;;;;;;2.80;2.60;;;28.50;55.30;;;;;;5034216;28;20563;-69
2023/07/21 07:32:42;;;;;;;2.90;2.60;;;28.50;55.40;;;;;;5046315;28;20485;-68
2023/07/21 07:35:11;;;;;;;2.67;2.40;;;28.50;55.30;;;;;;5040276;28;20456;-68
2023/07/21 07:37:39;;;;;;;3.17;2.63;;;28.50;55.30;;;;;;5045987;28;20473;-69
2023/07/21 07:40:10;;;;;;;2.73;2.50;;;28.50;55.30;;;;;;5043350;28;21293;-68
2023/07/21 07:42:40;;;;;;;2.67;2.47;;;28.50;55.30;;;;;;5040771;28;20503;-68
2023/07/21 07:45:08;;;;;;;3.10;2.50;;;28.50;55.30;;;;;;5046299;28;20462;-73
2023/07/21 07:47:36;;;;;;;3.00;2.60;;;28.50;55.30;;;;;;5042648;28;20468;-70
2023/07/21 07:50:09;;;;;;;3.40;3.10;;;28.50;55.20;;;;;;5045014;28;20993;-68
2023/07/21 07:52:39;;;;;;;2.33;2.20;;;28.50;55.30;;;;;;5040941;28;20465;-69
2023/07/21 07:55:08;;;;;;;2.30;2.07;;;28.50;55.30;;;;;;5043609;28;20472;-69
2023/07/21 07:57:36;;;;;;;3.63;2.60;;;28.50;55.30;;;;;;5041727;28;20457;-71
2023/07/21 08:00:07;;;;;;;2.73;2.53;;;28.60;55.40;;;;;;5042362;28;20460;-69
2023/07/21 08:02:39;;;;;;;3.60;2.50;;;28.60;55.30;;;;;;5036550;28;20542;-70
2023/07/21 08:05:10;;;;;;;5.23;3.20;;;28.60;55.30;;;;;;5039797;28;20467;-71
2023/07/21 08:07:38;;;;;;;2.90;2.70;;;28.60;55.30;;;;;;5039262;28;20458;-74
2023/07/21 08:10:07;;;;;;;2.90;2.60;;;28.60;55.20;;;;;;5045837;28;20479;-68
2023/07/21 08:12:35;;;;;;;1.90;1.80;;;28.60;55.10;;;;;;5042790;28;20483;-69
2023/07/21 08:15:04;;;;;;;2.50;2.30;;;28.60;55.10;;;;;;5040494;28;20465;-72
2023/07/21 08:17:36;;;;;;;3.10;2.80;;;28.50;55.10;;;;;;5038917;28;20466;-72
2023/07/21 08:20:05;;;;;;;2.43;2.23;;;28.60;55.10;;;;;;5040957;28;20501;-69
2023/07/21 08:22:35;;;;;;;2.70;2.50;;;28.60;55.10;;;;;;5042921;28;20497;-72
2023/07/21 08:25:06;;;;;;;5.80;2.80;;;28.60;55.10;;;;;;5041365;28;20454;-73
2023/07/21 08:27:35;;;;;;;4.20;2.77;;;28.60;55.30;;;;;;5046430;28;21030;-71
2023/07/21 08:30:04;;;;;;;3.47;2.60;;;28.60;55.20;;;;;;5042642;28;20498;-71
2023/07/21 08:32:32;;;;;;;5.20;2.97;;;28.60;55.20;;;;;;5042622;28;20607;-70
2023/07/21 08:35:01;;;;;;;2.60;2.30;;;28.60;55.30;;;;;;5041958;28;20577;-71
2023/07/21 08:37:30;;;;;;;3.07;2.43;;;28.60;55.30;;;;;;5026551;28;20461;-70
2023/07/21 08:39:59;;;;;;;2.50;2.30;;;28.60;55.30;;;;;;5040256;28;20455;-70
2023/07/21 08:42:28;;;;;;;2.60;2.40;;;28.70;55.30;;;;;;5045064;28;20454;-75
2023/07/21 08:44:57;;;;;;;2.60;2.40;;;28.70;55.30;;;;;;5040131;28;20462;-73
2023/07/21 08:47:25;;;;;;;3.37;2.50;;;28.70;55.20;;;;;;5046597;28;20488;-71
2023/07/21 08:49:53;;;;;;;2.83;2.63;;;28.70;55.20;;;;;;5042310;28;20512;-70
2023/07/21 08:52:22;;;;;;;2.67;2.47;;;28.70;55.30;;;;;;5041038;28;20578;-72
2023/07/21 08:54:50;;;;;;;2.60;2.40;;;28.70;55.20;;;;;;5041471;28;20463;-70
2023/07/21 08:57:20;;;;;;;3.87;2.60;;;28.70;55.20;;;;;;5029984;28;20465;-71
2023/07/21 08:59:49;;;;;;;4.90;2.50;;;28.70;55.30;;;;;;5036390;28;20464;-73
2023/07/21 09:02:17;;;;;;;2.87;2.57;;;28.70;55.30;;;;;;5050465;28;20475;-70
2023/07/21 09:04:46;;;;;;;3.23;2.30;;;28.70;55.30;;;;;;5047448;28;20458;-70
2023/07/21 09:07:14;;;;;;;2.77;2.57;;;28.70;55.30;;;;;;5044918;28;21159;-71
2023/07/21 09:09:50;;;;;;;2.90;2.70;;;28.70;55.30;;;;;;5045715;28;20479;-72
2023/07/21 09:12:19;;;;;;;2.70;2.50;;;28.70;55.30;;;;;;5046214;28;20508;-71
2023/07/21 09:14:48;;;;;;;2.90;2.17;;;28.70;55.30;;;;;;5045787;28;20454;-72
2023/07/21 09:17:16;;;;;;;2.10;2.00;;;28.70;55.30;;;;;;5049121;28;21010;-71
2023/07/21 09:19:46;;;;;;;2.60;2.40;;;28.70;55.30;;;;;;5046030;28;20461;-74
2023/07/21 09:22:14;;;;;;;3.80;2.60;;;28.70;55.30;;;;;;5045287;28;21130;-70
2023/07/21 09:24:49;;;;;;;2.63;2.43;;;28.70;55.40;;;;;;5051581;28;20847;-70
2023/07/21 09:27:20;;;;;;;12.83;2.83;;;28.70;55.40;;;;;;5046189;28;20940;-71
2023/07/21 09:29:48;;;;;;;3.70;2.30;;;28.70;55.30;;;;;;5043571;28;20486;-72
2023/07/21 09:32:19;;;;;;;2.57;2.17;;;28.70;55.40;;;;;;5049487;28;20474;-70
2023/07/21 09:34:55;;;;;;;2.23;2.13;;;28.70;55.40;;;;;;5045158;28;20584;-72
2023/07/21 09:37:25;;;;;;;2.10;1.90;;;28.70;55.40;;;;;;5048095;28;20455;-72
2023/07/21 09:39:57;;;;;;;2.13;2.00;;;28.70;55.40;;;;;;5044853;28;20513;-71
2023/07/21 09:42:28;;;;;;;2.10;2.00;;;28.70;55.40;;;;;;5037220;28;20500;-72
2023/07/21 09:44:58;;;;;;;2.53;2.33;;;28.70;55.40;;;;;;5044230;28;20458;-72
2023/07/21 09:47:26;;;;;;;2.27;2.00;;;28.70;55.50;;;;;;5046906;28;20962;-72
2023/07/21 09:49:58;;;;;;;3.07;2.37;;;28.70;55.30;;;;;;5048475;28;20921;-72
2023/07/21 09:52:28;;;;;;;2.57;2.20;;;28.70;55.30;;;;;;5044038;28;20497;-72
2023/07/21 09:55:05;;;;;;;2.13;2.03;;;28.70;55.50;;;;;;5048128;28;20462;-71
2023/07/21 09:57:37;;;;;;;2.53;1.97;;;28.70;55.50;;;;;;5044488;28;20461;-70
2023/07/21 10:00:12;;;;;;;2.40;2.20;;;28.70;55.50;;;;;;5049930;28;20460;-71
2023/07/21 10:02:42;;;;;;;2.17;1.83;;;28.70;55.50;;;;;;5042605;28;20519;-70
2023/07/21 10:05:11;;;;;;;1.90;1.80;;;28.70;55.50;;;;;;5047252;28;20465;-71
2023/07/21 10:07:42;;;;;;;2.03;1.93;;;28.70;55.50;;;;;;5038244;28;22039;-74
2023/07/21 10:10:12;;;;;;;2.33;2.13;;;28.70;55.40;;;;;;5048340;28;20462;-71
2023/07/21 10:12:51;;;;;;;1.80;1.70;;;28.70;55.50;;;;;;5041224;28;21052;-71
2023/07/21 10:15:21;;;;;;;2.50;1.90;;;28.70;55.40;;;;;;5046577;28;20531;-70
2023/07/21 10:17:59;;;;;;;2.13;1.93;;;28.80;55.50;;;;;;5048564;28;20511;-72
2023/07/21 10:20:42;;;;;;;2.07;1.87;;;28.80;55.40;;;;;;5045314;28;20466;-71
2023/07/21 10:23:12;;;;;;;2.10;1.87;;;28.90;55.30;;;;;;5046741;28;20457;-74
2023/07/21 10:26:00;;;;;;;2.40;2.20;;;28.90;55.20;;;;;;5042701;28;20464;-70
2023/07/21 10:28:39;;;;;;;2.13;1.93;;;28.90;55.20;;;;;;5026949;28;20820;-70
2023/07/21 10:31:30;;;;;;;2.13;1.93;;;28.90;55.10;;;;;;5025500;28;20911;-71
2023/07/21 10:34:03;;;;;;;2.00;1.90;;;28.90;55.00;;;;;;5044484;28;20466;-70
2023/07/21 10:36:49;;;;;;;3.40;2.17;;;28.80;55.10;;;;;;5039028;28;20519;-71
2023/07/21 10:39:19;;;;;;;2.00;1.90;;;28.80;55.10;;;;;;5043390;28;20508;-71
2023/07/21 10:41:48;;;;;;;2.77;2.13;;;28.80;55.00;;;;;;5044658;28;20475;-72
2023/07/21 10:44:19;;;;;;;2.97;2.77;;;28.80;55.00;;;;;;5039397;28;20536;-72
2023/07/21 10:46:49;;;;;;;2.13;1.93;;;28.80;54.90;;;;;;5047219;28;21829;-71
2023/07/21 10:49:19;;;;;;;2.60;2.43;;;28.80;54.90;;;;;;5043160;28;20515;-70
2023/07/21 10:51:48;;;;;;;2.97;1.80;;;28.70;54.90;;;;;;5045642;28;20500;-70
2023/07/21 10:54:17;;;;;;;1.70;1.50;;;28.70;54.80;;;;;;5044702;28;20476;-72
2023/07/21 10:56:48;;;;;;;3.17;2.80;;;28.70;54.80;;;;;;5044786;28;20496;-71
2023/07/21 10:59:19;;;;;;;1.80;1.70;;;28.70;54.70;;;;;;5039095;28;20472;-70
2023/07/21 11:01:50;;;;;;;2.50;2.07;;;28.60;54.70;;;;;;5022782;28;20454;-74
2023/07/21 11:04:20;;;;;;;2.17;2.07;;;28.60;54.60;;;;;;5041798;28;20465;-69
2023/07/21 11:06:50;;;;;;;1.70;1.60;;;28.60;54.60;;;;;;5042403;28;20956;-71
2023/07/21 11:09:21;;;;;;;2.10;1.90;;;28.60;54.40;;;;;;5036454;28;20525;-71
2023/07/21 11:11:51;;;;;;;1.80;1.70;;;28.50;54.30;;;;;;5045321;28;20478;-72
2023/07/21 11:14:23;;;;;;;5.60;3.67;;;28.50;54.10;;;;;;5043740;28;21200;-70
2023/07/21 11:16:53;;;;;;;2.80;2.00;;;28.50;54.00;;;;;;5036728;28;20783;-70
2023/07/21 11:19:22;;;;;;;2.73;2.20;;;28.50;54.00;;;;;;5040538;28;20551;-70
2023/07/21 11:21:51;;;;;;;3.17;2.30;;;28.50;53.90;;;;;;5043400;28;20457;-71
2023/07/21 11:24:25;;;;;;;3.23;1.70;;;28.50;53.70;;;;;;5039103;28;20464;-71
2023/07/21 11:26:56;;;;;;;2.10;2.00;;;28.50;53.60;;;;;;5044283;28;20459;-73
2023/07/21 11:29:30;;;;;;;4.03;2.00;;;28.50;53.70;;;;;;5042198;28;20552;-75
2023/07/21 11:31:58;;;;;;;4.17;2.50;;;28.60;53.70;;;;;;5040451;28;20927;-73
2023/07/21 11:34:28;;;;;;;1.83;1.73;;;28.60;53.60;;;;;;5041616;28;20475;-73
2023/07/21 11:36:59;;;;;;;2.30;2.10;;;28.60;53.80;;;;;;5037049;28;20508;-71
2023/07/21 11:39:28;;;;;;;2.83;2.13;;;28.60;53.80;;;;;;5040389;28;20558;-72
2023/07/21 11:41:58;;;;;;;3.30;2.23;;;28.60;53.80;;;;;;5038416;28;20473;-75
2023/07/21 11:44:30;;;;;;;2.00;1.90;;;28.60;53.70;;;;;;5042140;28;20538;-71
2023/07/21 11:47:04;;;;;;;1.73;1.63;;;28.60;53.80;;;;;;5037371;28;20959;-75
2023/07/21 11:49:38;;;;;;;2.17;2.07;;;28.60;53.80;;;;;;5035479;28;20480;-71
2023/07/21 11:52:08;;;;;;;2.20;2.00;;;28.60;53.80;;;;;;5046609;28;20511;-71
2023/07/21 11:54:40;;;;;;;2.30;2.10;;;28.60;53.80;;;;;;5042699;28;20459;-73
2023/07/21 11:57:10;;;;;;;3.03;2.10;;;28.60;53.70;;;;;;5032331;28;20545;-71
2023/07/21 11:59:39;;;;;;;2.00;1.80;;;28.60;53.80;;;;;;5038213;28;20465;-70
2023/07/21 12:02:09;;;;;;;2.17;1.97;;;28.60;53.70;;;;;;5040288;28;20469;-71
2023/07/21 12:04:38;;;;;;;1.80;1.70;;;28.60;53.80;;;;;;5041893;28;20462;-75
2023/07/21 12:07:08;;;;;;;2.57;2.37;;;28.60;53.90;;;;;;5041037;28;20484;-73
2023/07/21 12:09:38;;;;;;;2.40;2.20;;;28.60;53.90;;;;;;5032643;28;20469;-78
2023/07/21 12:12:07;;;;;;;2.60;2.10;;;28.60;53.90;;;;;;5046206;28;20963;-72
2023/07/21 12:14:36;;;;;;;1.97;1.87;;;28.50;53.90;;;;;;5031814;28;21058;-73
2023/07/21 12:17:07;;;;;;;3.33;2.23;;;28.50;54.00;;;;;;5036987;28;20483;-76
2023/07/21 12:19:35;;;;;;;2.50;2.30;;;28.50;54.10;;;;;;5039269;28;20456;-75
2023/07/21 12:22:04;;;;;;;2.63;2.30;;;28.60;54.20;;;;;;5042108;28;20464;-77
2023/07/21 12:24:32;;;;;;;2.03;1.80;;;28.60;54.20;;;;;;5042483;28;20457;-75
2023/07/21 12:27:00;;;;;;;2.37;2.17;;;28.70;54.30;;;;;;5042097;28;20518;-75
2023/07/21 12:29:28;;;;;;;2.27;2.17;;;28.80;54.30;;;;;;5040406;28;20462;-77
2023/07/21 12:32:14;;;;;;;1.70;1.60;;;28.90;54.30;;;;;;5042146;28;21187;-75
2023/07/21 12:34:42;;;;;;;5.10;2.27;;;29.00;54.50;;;;;;5046065;28;20496;-75
2023/07/21 12:37:11;;;;;;;7.50;2.17;;;29.00;54.40;;;;;;5040592;28;20501;-75
2023/07/21 12:39:39;;;;;;;2.00;1.90;;;29.10;54.50;;;;;;5035804;28;20504;-75
2023/07/21 12:42:08;;;;;;;5.83;2.27;;;29.10;54.60;;;;;;5040529;28;20476;-76
2023/07/21 12:44:36;;;;;;;2.03;1.50;;;29.10;54.60;;;;;;5044395;28;20957;-76
2023/07/21 12:47:05;;;;;;;1.80;1.70;;;29.20;54.70;;;;;;5042046;28;21031;-76
2023/07/21 12:49:35;;;;;;;2.37;1.93;;;29.20;54.90;;;;;;5040599;28;20950;-76
2023/07/21 12:52:03;;;;;;;1.97;1.73;;;29.20;54.90;;;;;;5040198;28;20473;-76
2023/07/21 12:54:32;;;;;;;2.70;2.53;;;29.20;55.00;;;;;;5046588;28;20512;-76
2023/07/21 12:57:00;;;;;;;1.90;1.80;;;29.20;55.10;;;;;;5038846;28;20460;-75
2023/07/21 12:59:29;;;;;;;1.60;1.50;;;29.20;55.20;;;;;;5045962;28;20466;-75
2023/07/21 13:01:57;;;;;;;2.10;1.73;;;29.20;55.40;;;;;;5034106;28;21680;-76
2023/07/21 13:04:25;;;;;;;2.00;1.80;;;29.20;55.40;;;;;;5043340;28;20481;-78
2023/07/21 13:06:55;;;;;;;2.57;2.10;;;29.20;55.50;;;;;;5041863;28;20457;-78